• Join FlightAware (Why Join?)
  • Login
  • US Flag 
04:24AM EDT


 

Airport Tracker/Info


-or-


 

Live Flight TrackerFlight Track Log ✈ ASQ6041 ✈ 08-Mar-2014 ✈ KDEN - KLNK

Flight Track Log - Related Links

Times and Time Zones

All times are in EST time to prevent confusion due to time zone crossing. See the ASQ6041 flight status page for this flight to view local times or setup timezone preferences in your user account.

Time Position Orientation Groundspeed Altitude Reporting Facility
EST Latitude Longitude Course Direction KTS MPH feet Rate Location/Type
01:09PM 39.8764 -104.5683 80° East 176 203 7,700  Level Denver Center
01:09PM 39.8833 -104.5000 82° East 249 287 9,100 2,220 Climbing Denver TRACON
01:10PM 39.8667 -104.4000 102° East 266 306 11,800 2,100 Climbing Denver TRACON
01:12PM 39.8742 -104.2667 86° East 301 346 14,000 1,560 Climbing Denver Center
01:13PM 39.8725 -104.1308 91° East 348 400 15,500 1,500 Climbing Denver Center
01:14PM 39.9195 -103.3379 80° East  Level FlightAware Approximate
01:14PM 39.8769 -104.0014 87° East 359 413 17,200  Level Denver Center
01:15PM 39.9014 -103.8644 77° East 360 414 18,900 1,620 Climbing Denver Center
01:16PM 39.9233 -103.7286 78° East 359 413 20,600 1,620 Climbing Denver Center
01:17PM 39.9453 -103.6011 77° East 355 409 22,300 1,620 Climbing Denver Center
01:18PM 39.9694 -103.4469 78° East 361 415 24,300 1,620 Climbing Denver Center
01:19PM 39.9903 -103.3183 78° East 362 417 26,000 1,620 Climbing Denver Center
01:20PM 40.0106 -103.1936 78° East 356 410 27,700 1,560 Climbing Denver Center
01:21PM 40.0306 -103.0697 78° East 353 406 29,300 1,380 Climbing Denver Center
01:22PM 40.0553 -102.9172 78° East 360 414 30,600 780 Climbing Denver Center
01:23PM 40.0764 -102.7831 78° East 375 432 31,000 180 Climbing Denver Center
01:24PM 40.0975 -102.6478 78° East 405 466 31,000  Level Denver Center
01:25PM 40.1242 -102.4736 79° East 432 497 31,000  Level Denver Center
01:26PM 40.1464 -102.3236 79° East 438 504 31,000  Level Denver Center
01:27PM 40.1725 -102.1483 79° East 438 504 31,000  Level Denver Center
01:28PM 40.1961 -101.9994 78° East 438 504 31,000  Level Denver Center
01:29PM 40.2211 -101.8250 79° East 437 503 31,000  Level Denver Center
01:30PM 40.2442 -101.6744 79° East 439 505 31,000  Level Denver Center
01:32PM 40.2694 -101.4983 79° East 440 506 31,000  Level Denver Center
01:33PM 40.2911 -101.3478 79° East 440 506 31,000  Level Denver Center
01:34PM 40.3164 -101.1708 79° East 441 507 31,000  Level Denver Center
01:35PM 40.3381 -101.0200 79° East 443 510 31,000  Level Denver Center
01:36PM 40.3619 -100.8431 80° East 443 510 31,000  Level Denver Center
01:37PM 40.3831 -100.6903 80° East 443 510 31,000  Level Denver Center
01:38PM 40.4067 -100.5128 80° East 444 511 31,000  Level Denver Center
01:39PM 40.4272 -100.3589 80° East 447 514 31,000  Level Denver Center
01:40PM 40.4514 -100.1797 80° East 449 517 31,000  Level Denver Center
01:41PM 40.4719 -100.0228 80° East 453 521 31,000  Level Denver Center
01:42PM 40.4944 -99.8461 80° East 454 522 31,000  Level Denver Center
01:43PM 40.5164 -99.6811 80° East 455 524 31,000  Level Denver Center
01:44PM 40.5369 -99.5161 81° East 456 525 31,000  Level Denver Center
01:45PM 40.5586 -99.3506 80° East 460 529 31,000  Level Denver Center
01:46PM 40.5833 -99.1508 81° East 464 534 31,000  Level Denver Center
01:47PM 40.5994 -99.0175 81° East 461 531 31,000 -480 Level Minneapolis Center
01:48PM 40.6200 -98.8508 81° East 462 532 30,200 -1,440 Descending Minneapolis Center
01:49PM 40.6397 -98.6819 81° East 465 535 28,100 -2,220 Descending Minneapolis Center
01:50PM 40.6600 -98.5122 81° East 468 539 25,700 -2,400 Descending Minneapolis Center
01:51PM 40.6789 -98.3458 81° East 468 539 23,200 -2,700 Descending Minneapolis Center
01:52PM 40.7008 -98.1586 81° East 441 507 20,200 -2,700 Descending Minneapolis Center
01:53PM 40.7175 -98.0106 82° East 419 482 17,700 -2,280 Descending Minneapolis Center
01:54PM 40.7333 -97.8708 81° East 397 457 15,600 -2,280 Descending Minneapolis Center
01:55PM 40.7478 -97.7336 82° East 386 444 13,100 -2,640 Descending Minneapolis Center
01:55PM 40.7289 -97.6831 116° Southeast 380 437 12,300 -1,860 Descending Minneapolis Center
01:56PM 40.7639 -97.5997 61° Northeast 376 433 11,200 -1,440 Descending Minneapolis Center
01:56PM 40.7431 -97.5553 122° Southeast 353 406 10,900 -840 Descending Minneapolis Center
01:57PM 40.7675 -97.4839 66° East 327 376 10,400 -1,020 Descending Minneapolis Center
01:57PM 40.7458 -97.4481 129° Southeast 283 326 9,900 -1,680 Descending Minneapolis Center
01:58PM 40.7642 -97.3794 71° East 292 336 8,700 -1,680 Descending Minneapolis Center
01:58PM 40.7444 -97.3464 128° Southeast 269 310 8,200 -1,980 Descending Minneapolis Center
01:59PM 40.7600 -97.2722 75° East 277 319 6,700 -2,040 Descending Minneapolis Center
01:59PM 40.7428 -97.2394 125° Southeast 270 311 6,200 -1,800 Descending Minneapolis Center
02:00PM 40.7586 -97.1756 72° East 270 311 4,900 -1,680 Descending Minneapolis Center
02:00PM 40.7419 -97.1461 127° Southeast 263 303 4,500 -1,440 Descending Minneapolis Center
02:01PM 40.7411 -97.0583 91° East 245 282 3,400 -840 Descending Minneapolis Center
02:02PM 40.7531 -96.9975 75° East 250 288 3,000 -420 Descending Minneapolis Center
02:02PM 40.7381 -96.9650 121° Southeast 225 259 3,000  Level Minneapolis Center
02:03PM 40.7514 -96.8989 75° East 236 272 3,000  Level Minneapolis Center
02:03PM 40.7375 -96.8828 139° Southeast 231 266 3,000  Level Minneapolis Center
02:04PM 40.7536 -96.8206 71° East 227 261 3,000  Level Minneapolis Center
02:04PM 40.7436 -96.8106 143° Southeast 199 229 3,000 -840 Level Minneapolis Center
02:05PM 40.7756 -96.7689 45° Northeast 189 217 2,200 -840 Descending Minneapolis Center
02:05PM 40.7678 -96.7586 135° Southeast 128 147 2,200 -300 Level Minneapolis Center
02:06PM 40.8067 -96.7694 348° North 165 190 1,900 -720 Descending Minneapolis Center
02:06PM 40.8031 -96.7550 108° East 118 136 1,500 -12,000 Descending Minneapolis Center